KVTI

Details ICAO KVTI
Name VINTON VETERANS MEM ARPK
Region United States
Timezone America/Chicago (UTC-6.0)
Plans Departing 1
Arriving 0
Stats Elevation 845 ft / 258 m (AMSL)
Location 42.219487° -92.026300°
Runways 2
Magnetic Variation 0.495° W
Sunrise 2017-12-17 13:32:45 UTC / 2017-12-17 07:32:45 Local
Sunset 2017-12-17 22:38:41 UTC / 2017-12-17 16:38:41 Local
Advertisement - Login to hide

Runways

ID Width Length Bearing (true) Bearing (mag) Surface Threshold Offset Overrun Length
09 60 ft / 18 m 4,001 ft / 1,220 m 92.51° 93.01° Concrete 0 ft / 0 m 0 ft / 0 m
16 50 ft / 15 m 2,502 ft / 763 m 160.86° 161.36° Asphalt 0 ft / 0 m 0 ft / 0 m
27 60 ft / 18 m 4,001 ft / 1,220 m 272.52° 273.02° Concrete 0 ft / 0 m 0 ft / 0 m
34 50 ft / 15 m 2,502 ft / 763 m 340.86° 341.36° Asphalt 200 ft / 61 m 0 ft / 0 m

Map

Weather


0- 5 10 15 20 25 30 35+ Temperature / ° C

Clouds and Precipitation
Forecast for 2017-12-18 06:00 UTC. Updated 42 minutes ago

Ground ~20,000 ft ~40,000 ft Winds

METAR

KVTI 180215Z AUTO 00000KT 5SM HZ BKN024 03/00 A2997 RMK AO2 T00260000

TAF

Not found

Frequencies

Recorded 120.07 MHz AWOS 3
Approach 134.05 MHz CEDAR RAPIDS APP/DEP
Unicom 122.80 MHz CTAF/UNICOM
Warning: Do not use this data for real-world aviation or navigation. No guarantee of current accuracy is given.